Latest Weather Observations for Frederick Reef

IDQ60801

Issued at 1:35 pm EST Friday 25 July 2014 (issued every 30 minutes, with the page automatically refreshed every 10 minutes)

About weather observations | Map of weather stations | Latest weather observations for QLD | Other Formats
Station Details ID: 200701 Name: FREDERICK REEF Lat: -20.94 Lon: 154.40 Height: 4.9 m
Data from the previous 72 hours. | See also: Recent months for locations in Queensland
Date/Time
EST
Temp
°C
App
Temp
°C
Dew
Point
Rel
Hum
%
Delta-T
°C
Wind Press
QNH
hPa
Press
MSL
hPa
Rain
since 9 am
mm
Dir
 
Spd
km/h
Gust
km/h
Spd
kts
Gust
kts
25/01:30pm 22.4 - - - - E 39 44 21 24 1021.3 - -
25/01:00pm 22.5 - - - - ESE 37 41 20 22 1021.6 - -
25/12:30pm 22.3 - - - - ESE 37 44 20 24 1021.7 - -
25/12:00pm 22.3 - - - - ESE 39 44 21 24 1022.0 1022.0 -
25/11:30am 21.8 - - - - ESE 35 41 19 22 1022.5 - -
25/11:00am 22.0 - - - - E 37 44 20 24 1023.0 - -
25/10:30am 21.8 - - - - ESE 39 43 21 23 1023.3 - -
25/10:00am 21.6 - - - - SE 32 35 17 19 1023.5 - -
25/09:30am 21.9 - - - - E 35 46 19 25 1023.4 - -
25/09:20am 21.9 - - - - E 32 50 17 27 1023.3 - -
25/09:00am 21.5 - - - - ENE 35 39 19 21 1023.5 1023.5 -
25/08:30am 22.5 - - - - E 33 41 18 22 1023.4 - -
25/08:00am 21.8 - - - - ESE 28 37 15 20 1023.0 - -
25/07:30am 21.7 - - - - E 28 33 15 18 1022.8 - -
25/07:00am 21.3 - - - - ESE 41 48 22 26 1022.0 - -
25/06:30am 21.5 - - - - ESE 35 41 19 22 1021.9 - -
25/06:00am 21.6 - - - - E 35 41 19 22 1021.6 - -
25/05:59am 21.6 - - - - E 37 41 20 22 1021.5 - -
25/05:30am 21.8 - - - - SE 35 41 19 22 1021.3 - -
25/05:00am 21.6 - - - - ESE 30 37 16 20 1021.0 - -
25/04:30am 21.8 - - - - ESE 30 33 16 18 1020.6 - -
25/04:00am 21.8 - - - - ESE 28 35 15 19 1020.5 - -
25/03:30am 21.6 - - - - ESE 32 41 17 22 1020.6 - -
25/12:00am 22.4 - - - - ESE 37 41 20 22 1021.3 - -
 
Date/Time
EST
Temp
°C
App
Temp
°C
Dew
Point
Rel
Hum
%
Delta-T
°C
Wind Press
QNH
hPa
Press
MSL
hPa
Rain
since 9 am
mm
Dir
 
Spd
km/h
Gust
km/h
Spd
kts
Gust
kts
24/11:30pm 22.2 - - - - E 32 41 17 22 1021.4 - -
24/11:00pm 22.1 - - - - ESE 33 39 18 21 1021.3 - -
24/10:30pm 22.0 - - - - E 33 44 18 24 1021.5 - -
24/10:00pm 22.1 - - - - E 37 43 20 23 1021.5 - -
24/09:30pm 22.2 - - - - ESE 33 39 18 21 1021.4 - -
24/09:00pm 22.3 - - - - ESE 33 37 18 20 1021.3 1021.3 -
24/08:30pm 22.3 - - - - ESE 35 39 19 21 1021.0 - -
24/08:00pm 22.2 - - - - ESE 33 37 18 20 1021.0 - -
24/07:30pm 22.0 - - - - ESE 35 41 19 22 1020.8 - -
24/07:00pm 22.1 - - - - ESE 32 35 17 19 1020.4 - -
24/06:30pm 21.9 - - - - E 24 30 13 16 1020.1 - -
24/06:00pm 21.7 - - - - ESE 32 35 17 19 1019.8 - -
24/05:30pm 22.2 - - - - ESE 33 37 18 20 1019.3 - -
24/05:00pm 22.2 - - - - E 32 35 17 19 1018.9 - -
24/04:30pm 22.1 - - - - E 28 33 15 18 1018.5 - -
24/04:00pm 22.1 - - - - E 28 32 15 17 1018.2 - -
24/03:30pm 22.1 - - - - E 28 32 15 17 1018.0 - -
24/03:00pm 21.9 - - - - E 33 41 18 22 1017.8 1017.8 -
24/02:30pm 21.8 - - - - ESE 30 33 16 18 1017.6 - -
24/02:00pm 22.0 - - - - ESE 30 35 16 19 1017.7 - -
24/01:30pm 22.1 - - - - E 28 35 15 19 1018.0 - -
24/01:00pm 21.6 - - - - E 32 35 17 19 1018.2 - -
24/12:30pm 21.7 - - - - E 30 33 16 18 1018.7 - -
24/12:00pm 21.6 - - - - E 37 43 20 23 1019.2 1019.2 -
24/11:30am 21.7 - - - - ESE 30 35 16 19 1019.6 - -
24/11:00am 22.0 - - - - E 24 32 13 17 1019.9 - -
24/10:30am 22.0 - - - - E 26 32 14 17 1020.2 - -
24/10:00am 22.0 - - - - ESE 26 32 14 17 1020.4 - -
24/09:30am 22.0 - - - - ESE 24 30 13 16 1020.3 - -
24/09:00am 21.9 - - - - ESE 26 32 14 17 1020.2 1020.2 -
24/08:30am 21.7 - - - - ESE 30 35 16 19 1020.1 - -
24/08:00am 21.6 - - - - ESE 30 33 16 18 1019.9 - -
24/07:30am 21.6 - - - - ESE 26 33 14 18 1019.8 - -
24/07:00am 21.4 - - - - ESE 28 37 15 20 1019.4 - -
24/06:30am 21.3 - - - - ESE 28 32 15 17 1019.0 - -
24/06:00am 21.4 - - - - ESE 28 32 15 17 1018.5 1018.5 -
24/05:30am 21.3 - - - - ESE 30 35 16 19 1018.3 - -
24/05:00am 21.3 - - - - SE 26 32 14 17 1018.0 - -
24/04:30am 21.5 - - - - ESE 26 32 14 17 1017.7 - -
24/04:00am 21.3 - - - - ESE 26 32 14 17 1017.5 - -
24/03:30am 21.4 - - - - ESE 28 32 15 17 1017.6 - -
24/03:00am 21.7 - - - - ESE 30 35 16 19 1017.5 - -
24/02:30am 21.5 - - - - SE 30 35 16 19 1017.6 - -
24/02:00am 21.4 - - - - ESE 30 35 16 19 1017.8 - -
24/01:30am 21.5 - - - - SE 32 35 17 19 1017.9 - -
24/01:00am 21.5 - - - - SE 33 37 18 20 1018.1 - -
24/12:30am 21.6 - - - - SE 32 41 17 22 1018.3 - -
24/12:00am 21.4 - - - - ESE 33 39 18 21 1018.3 - -
 
Date/Time
EST
Temp
°C
App
Temp
°C
Dew
Point
Rel
Hum
%
Delta-T
°C
Wind Press
QNH
hPa
Press
MSL
hPa
Rain
since 9 am
mm
Dir
 
Spd
km/h
Gust
km/h
Spd
kts
Gust
kts
23/11:30pm 21.4 - - - - SE 33 39 18 21 1018.4 - -
23/11:00pm 21.6 - - - - SE 33 41 18 22 1018.5 - -
23/10:30pm 21.6 - - - - ESE 33 39 18 21 1018.5 - -
23/10:00pm 21.6 - - - - ESE 35 41 19 22 1018.6 - -
23/09:30pm 21.5 - - - - ESE 33 41 18 22 1018.7 - -
23/09:00pm 21.6 - - - - ESE 37 43 20 23 1018.5 - -
23/08:30pm 21.7 - - - - SE 35 43 19 23 1018.5 - -
23/08:00pm 21.7 - - - - SE 37 43 20 23 1018.4 - -
23/07:30pm 21.6 - - - - SE 35 41 19 22 1018.1 - -
23/07:00pm 21.8 - - - - SE 35 43 19 23 1017.8 - -
23/06:30pm 21.6 - - - - SE 37 41 20 22 1017.7 - -
23/06:00pm 21.8 - - - - SE 33 43 18 23 1017.5 - -
23/05:30pm 21.6 - - - - SE 35 43 19 23 1017.3 - -
23/05:00pm 21.7 - - - - SE 35 41 19 22 1016.9 - -
23/04:30pm 21.9 - - - - SE 35 39 19 21 1016.9 - -
23/04:00pm 21.9 - - - - SE 32 37 17 20 1016.7 - -
23/03:30pm 21.9 - - - - ESE 35 41 19 22 1016.2 - -
23/03:00pm 21.8 - - - - SE 35 39 19 21 1016.0 1016.0 -
23/02:30pm 21.8 - - - - SE 33 39 18 21 1015.9 - -
23/02:00pm 21.7 - - - - SE 35 41 19 22 1015.9 - -
23/01:30pm 21.7 - - - - SE 35 44 19 24 1016.2 - -
23/01:00pm 21.8 - - - - SE 35 41 19 22 1016.5 - -
23/12:30pm 21.9 - - - - SE 32 35 17 19 1017.0 - -
23/12:00pm 21.7 - - - - SE 32 39 17 21 1017.2 1017.2 -
23/11:30am 21.8 - - - - ESE 32 35 17 19 1017.8 - -
23/11:00am 21.8 - - - - SE 32 37 17 20 1018.0 - -
23/10:30am 21.7 - - - - SE 33 39 18 21 1018.3 - -
23/10:00am 21.8 - - - - SE 32 37 17 20 1018.6 - -
23/09:30am 21.8 - - - - SE 32 35 17 19 1018.7 - -
23/09:00am 22.1 - - - - ESE 30 33 16 18 1018.6 1018.6 -
23/08:30am 21.7 - - - - ESE 32 35 17 19 1018.4 - -
23/08:00am 21.8 - - - - ESE 33 39 18 21 1018.1 - -
23/07:30am 21.7 - - - - ESE 30 35 16 19 1017.8 - -
23/07:00am 21.4 - - - - ESE 33 39 18 21 1017.5 - -
23/06:30am 21.1 - - - - ESE 35 39 19 21 1017.1 - -
23/06:00am 20.6 - - - - SE 37 43 20 23 1017.0 1017.0 -
23/05:30am 21.0 - - - - SE 43 46 23 25 1016.7 - -
23/05:00am 21.5 - - - - ESE 30 35 16 19 1016.6 - -
23/04:30am 21.2 - - - - ESE 26 32 14 17 1016.4 - -
23/04:00am 21.5 - - - - ESE 24 32 13 17 1016.3 - -
23/03:30am 21.0 - - - - ESE 26 30 14 16 1016.4 - -
23/03:00am 21.2 - - - - E 22 26 12 14 1016.4 - -
23/02:30am 21.1 - - - - ESE 22 26 12 14 1016.5 - -
23/02:00am 21.0 - - - - ESE 22 26 12 14 1016.6 - -
23/01:30am 20.5 - - - - ESE 24 30 13 16 1016.8 - -
23/01:00am 20.8 - - - - ESE 26 32 14 17 1017.2 - -
23/12:30am 21.2 - - - - E 26 30 14 16 1017.6 - -
23/12:00am 21.4 - - - - SE 19 24 10 13 1017.7 - -
 
Date/Time
EST
Temp
°C
App
Temp
°C
Dew
Point
Rel
Hum
%
Delta-T
°C
Wind Press
QNH
hPa
Press
MSL
hPa
Rain
since 9 am
mm
Dir
 
Spd
km/h
Gust
km/h
Spd
kts
Gust
kts
22/11:30pm 21.3 - - - - ESE 17 20 9 11 1017.6 - -
22/11:00pm 21.3 - - - - SE 22 26 12 14 1017.8 - -
22/10:30pm 21.1 - - - - ESE 26 30 14 16 1017.9 - -
22/10:22pm 21.0 - - - - SE 28 30 15 16 1017.9 - -
22/10:00pm 21.5 - - - - CALM 0 4 0 2 1018.0 - -
22/09:30pm 21.5 - - - - CALM 0 4 0 2 1018.2 - -
22/09:00pm 21.5 - - - - CALM 0 4 0 2 1018.1 - -
22/08:30pm 21.5 - - - - CALM 0 4 0 2 1018.1 - -
22/08:00pm 21.5 - - - - CALM 0 7 0 4 1018.1 - -
22/07:30pm 21.5 - - - - CALM 0 6 0 3 1018.0 - -
22/07:00pm 21.5 - - - - CALM 0 6 0 3 1017.7 - -
22/06:30pm 21.5 - - - - CALM 0 6 0 3 1017.4 - -
22/06:00pm 21.4 - - - - CALM 0 6 0 3 1017.0 - -
22/05:30pm 21.5 - - - - SSE 6 17 3 9 1016.6 - -
22/05:00pm 21.5 - - - - S 15 19 8 10 1016.4 - -
22/04:30pm 21.5 - - - - S 17 20 9 11 1016.2 - -
22/04:00pm 21.6 - - - - S 17 19 9 10 1016.1 - -
22/03:30pm 21.6 - - - - S 17 20 9 11 1015.9 - -
22/03:00pm 21.5 - - - - S 17 19 9 10 1015.8 1015.8 -
22/02:30pm 21.3 - - - - S 15 20 8 11 1015.8 - -
22/02:00pm 21.5 - - - - S 13 17 7 9 1016.0 - -

Other Formats:

Comma delimited format used in spreadsheet applications
http://www.bom.gov.au/fwo/IDQ60801/IDQ60801.94393.axf

JavaScript Object Notation format (JSON) in row-major order
http://www.bom.gov.au/fwo/IDQ60801/IDQ60801.94393.json